createdAt,value
2023-10-23T00:01:22.243Z,12.54
2023-10-23T00:03:51.827Z,12.50
2023-10-23T00:06:18.678Z,12.55
2023-10-23T00:08:45.341Z,12.51
2023-10-23T00:11:22.883Z,12.51
2023-10-23T00:13:49.559Z,12.44
2023-10-23T00:16:16.211Z,12.43
2023-10-23T00:18:43.128Z,12.39
2023-10-23T00:21:09.810Z,12.36
2023-10-23T00:23:36.626Z,12.35
2023-10-23T00:26:03.387Z,12.38
2023-10-23T00:28:30.000Z,12.35
2023-10-23T00:30:56.722Z,12.35
2023-10-23T00:33:23.504Z,12.35
2023-10-23T00:35:50.258Z,12.32
2023-10-23T00:38:16.888Z,12.31
2023-10-23T00:40:43.697Z,12.36
2023-10-23T00:43:14.061Z,12.35
2023-10-23T00:45:49.972Z,12.30
2023-10-23T00:48:17.515Z,12.28
2023-10-23T00:50:44.221Z,12.29
2023-10-23T00:53:11.284Z,12.29
2023-10-23T00:55:38.014Z,12.26
2023-10-23T00:58:04.778Z,12.20
2023-10-23T01:00:32.040Z,12.19
2023-10-23T01:02:58.737Z,12.22
2023-10-23T01:05:25.382Z,12.19
2023-10-23T01:07:52.101Z,12.17
2023-10-23T01:10:19.262Z,12.15
2023-10-23T01:12:45.906Z,12.13
2023-10-23T01:15:12.559Z,12.13
2023-10-23T01:17:39.219Z,12.09
2023-10-23T01:20:09.694Z,12.03
2023-10-23T01:22:36.402Z,11.97
2023-10-23T01:25:03.316Z,11.95
2023-10-23T01:27:29.970Z,11.98
2023-10-23T01:29:56.609Z,12.00
2023-10-23T01:32:23.242Z,11.98
2023-10-23T01:34:49.866Z,11.85
2023-10-23T01:37:16.515Z,11.91
2023-10-23T01:39:43.278Z,11.90
2023-10-23T01:42:09.951Z,11.90
2023-10-23T01:44:36.683Z,11.87
2023-10-23T01:47:03.428Z,11.75
2023-10-23T01:49:30.186Z,11.80
2023-10-23T01:51:56.924Z,11.81
2023-10-23T01:54:23.654Z,11.80
2023-10-23T01:56:50.729Z,11.82
2023-10-23T01:59:17.430Z,11.75
2023-10-23T02:01:44.365Z,11.73
2023-10-23T02:04:11.363Z,11.74
2023-10-23T02:06:38.331Z,11.77
2023-10-23T02:09:05.437Z,11.72
2023-10-23T02:11:32.401Z,11.74
2023-10-23T02:14:01.419Z,11.70
2023-10-23T02:16:28.090Z,11.72
2023-10-23T02:18:54.843Z,11.71
2023-10-23T02:21:21.590Z,11.69
2023-10-23T02:23:56.221Z,11.67
2023-10-23T02:26:23.626Z,11.64
2023-10-23T02:28:50.224Z,11.58
2023-10-23T02:31:16.923Z,11.55
2023-10-23T02:33:43.750Z,11.58
2023-10-23T02:36:10.420Z,11.57
2023-10-23T02:38:37.079Z,11.57
2023-10-23T02:41:03.829Z,11.59
2023-10-23T02:43:30.535Z,11.57
2023-10-23T02:46:02.335Z,11.55
2023-10-23T02:48:29.392Z,11.56
2023-10-23T02:50:57.190Z,11.55
2023-10-23T02:53:24.386Z,11.50
2023-10-23T02:55:53.828Z,11.50
2023-10-23T02:58:20.730Z,11.45
2023-10-23T03:00:47.408Z,11.48
2023-10-23T03:03:14.462Z,11.51
2023-10-23T03:05:41.154Z,11.47
2023-10-23T03:08:07.782Z,11.47
2023-10-23T03:10:34.758Z,11.44
2023-10-23T03:13:01.480Z,11.42
2023-10-23T03:15:28.217Z,11.41
2023-10-23T03:17:55.165Z,11.43
2023-10-23T03:20:21.793Z,11.42
2023-10-23T03:22:48.407Z,11.39
2023-10-23T03:25:15.030Z,11.33
2023-10-23T03:27:42.832Z,11.36
2023-10-23T03:30:09.914Z,11.35
2023-10-23T03:32:36.706Z,11.31
2023-10-23T03:35:04.568Z,11.31
2023-10-23T03:37:31.329Z,11.32
2023-10-23T03:39:57.996Z,11.30
2023-10-23T03:42:24.679Z,11.31
2023-10-23T03:44:51.422Z,11.28
2023-10-23T03:47:18.066Z,11.26
2023-10-23T03:49:45.148Z,11.25
2023-10-23T03:52:11.825Z,11.22
2023-10-23T03:54:38.640Z,11.24
2023-10-23T03:57:05.430Z,11.20
2023-10-23T03:59:32.102Z,11.20
2023-10-23T04:01:58.823Z,11.20
2023-10-23T04:04:25.635Z,11.20
2023-10-23T04:06:52.455Z,11.17
2023-10-23T04:09:19.127Z,11.14
2023-10-23T04:11:45.859Z,11.19
2023-10-23T04:14:12.509Z,11.19
2023-10-23T04:16:40.450Z,11.17
2023-10-23T04:19:07.127Z,11.22
2023-10-23T04:21:40.366Z,11.22
2023-10-23T04:24:08.501Z,11.25
2023-10-23T04:26:37.799Z,11.24
2023-10-23T04:29:05.654Z,11.21
2023-10-23T04:31:32.331Z,11.22
2023-10-23T04:33:59.048Z,11.22
2023-10-23T04:36:25.766Z,11.22
2023-10-23T04:38:52.396Z,11.17
2023-10-23T04:41:20.897Z,11.19
2023-10-23T04:43:47.557Z,11.15
2023-10-23T04:46:14.498Z,11.21
2023-10-23T04:48:41.187Z,11.20
2023-10-23T04:51:07.839Z,11.21
2023-10-23T04:53:34.421Z,11.21
2023-10-23T04:56:04.860Z,11.23
2023-10-23T04:58:31.569Z,11.22
2023-10-23T05:00:58.316Z,11.21
2023-10-23T05:03:25.132Z,11.22
2023-10-23T05:05:52.721Z,11.24
2023-10-23T05:08:19.433Z,11.14
2023-10-23T05:10:46.076Z,11.15
2023-10-23T05:13:12.688Z,11.16
2023-10-23T05:15:39.331Z,11.14
2023-10-23T05:18:06.088Z,11.14
2023-10-23T05:20:35.310Z,11.19
2023-10-23T05:23:02.059Z,11.20
2023-10-23T05:25:28.675Z,11.17
2023-10-23T05:27:55.321Z,11.19
2023-10-23T05:30:22.008Z,11.16
2023-10-23T05:32:48.828Z,11.12
2023-10-23T05:35:16.257Z,11.13
2023-10-23T05:37:42.985Z,11.15
2023-10-23T05:40:09.978Z,11.16
2023-10-23T05:42:36.650Z,11.17
2023-10-23T05:45:04.438Z,11.15
2023-10-23T05:47:31.309Z,11.14
2023-10-23T05:49:58.016Z,11.16
2023-10-23T05:52:24.668Z,11.13
2023-10-23T05:54:51.322Z,11.12
2023-10-23T05:57:17.987Z,11.14
2023-10-23T05:59:44.620Z,11.18
2023-10-23T06:02:13.958Z,11.15
2023-10-23T06:04:45.513Z,11.12
2023-10-23T06:07:13.832Z,11.09
2023-10-23T06:09:41.141Z,11.09
2023-10-23T06:12:08.278Z,11.06
2023-10-23T06:14:34.908Z,11.05
2023-10-23T06:17:01.505Z,11.02
2023-10-23T06:19:28.323Z,11.04
2023-10-23T06:21:55.002Z,11.07
2023-10-23T06:24:21.690Z,11.07
2023-10-23T06:26:48.304Z,11.09
2023-10-23T06:29:14.968Z,11.10
2023-10-23T06:31:41.625Z,11.13
2023-10-23T06:34:08.334Z,11.16
2023-10-23T06:36:35.016Z,11.18
2023-10-23T06:39:01.846Z,11.15
2023-10-23T06:41:28.533Z,11.18
2023-10-23T06:43:55.217Z,11.13
2023-10-23T06:46:21.879Z,11.17
2023-10-23T06:48:48.660Z,11.20
2023-10-23T06:51:15.378Z,11.26
2023-10-23T06:53:42.131Z,11.25
2023-10-23T06:56:11.608Z,11.26
2023-10-23T06:58:38.295Z,11.29
2023-10-23T07:01:11.368Z,11.31
2023-10-23T07:03:38.390Z,11.19
2023-10-23T07:06:07.131Z,11.28
2023-10-23T07:08:34.347Z,11.25
2023-10-23T07:11:03.659Z,11.34
2023-10-23T07:13:30.329Z,11.42
2023-10-23T07:15:57.193Z,11.37
2023-10-23T07:18:25.156Z,11.43
2023-10-23T07:20:57.360Z,11.43
2023-10-23T07:23:24.406Z,11.47
2023-10-23T07:26:23.616Z,11.55
2023-10-23T07:28:51.471Z,11.55
2023-10-23T07:31:18.439Z,11.55
2023-10-23T07:33:45.158Z,11.62
2023-10-23T07:36:13.607Z,11.68
2023-10-23T07:38:42.915Z,11.70
2023-10-23T07:41:10.827Z,11.80
2023-10-23T07:43:37.454Z,11.82
2023-10-23T07:46:16.774Z,11.71
2023-10-23T07:48:45.230Z,11.81
2023-10-23T07:51:12.242Z,11.85
2023-10-23T07:53:39.131Z,11.92
2023-10-23T07:56:06.356Z,11.92
2023-10-23T07:58:33.361Z,11.95
2023-10-23T08:01:07.848Z,11.92
2023-10-23T08:03:35.674Z,11.85
2023-10-23T08:06:07.504Z,11.82
2023-10-23T08:08:36.562Z,11.89
2023-10-23T08:11:05.124Z,11.94
2023-10-23T08:13:32.261Z,11.96
2023-10-23T08:16:00.795Z,11.94
2023-10-23T08:18:38.099Z,11.98
2023-10-23T08:21:14.439Z,11.91
2023-10-23T08:23:42.600Z,11.99
2023-10-23T08:26:09.648Z,11.97
2023-10-23T08:28:54.215Z,12.04
2023-10-23T08:31:34.976Z,12.09
2023-10-23T08:34:06.332Z,12.19
2023-10-23T08:36:34.143Z,12.25
2023-10-23T08:39:02.138Z,12.31
2023-10-23T08:41:28.947Z,12.34
2023-10-23T08:43:58.214Z,12.40
2023-10-23T08:46:33.534Z,12.49
2023-10-23T08:49:05.186Z,12.37
2023-10-23T08:51:35.057Z,12.47
2023-10-23T08:54:12.391Z,12.40
2023-10-23T08:56:42.643Z,12.41
2023-10-23T08:59:15.528Z,12.51
2023-10-23T09:01:42.695Z,12.57
2023-10-23T09:04:12.470Z,12.43
2023-10-23T09:06:40.198Z,12.43
2023-10-23T09:09:07.414Z,12.61
2023-10-23T09:11:45.663Z,12.51
2023-10-23T09:14:26.397Z,12.60
2023-10-23T09:16:55.227Z,12.61
2023-10-23T09:19:26.558Z,12.65
2023-10-23T09:21:59.276Z,12.72
2023-10-23T09:24:26.483Z,12.72
2023-10-23T09:26:53.624Z,12.75
2023-10-23T09:29:27.873Z,12.93
2023-10-23T09:31:56.498Z,13.02
2023-10-23T09:34:23.661Z,13.07
2023-10-23T09:36:51.822Z,13.06
2023-10-23T09:39:19.898Z,13.16
2023-10-23T09:41:47.404Z,13.15
2023-10-23T09:44:15.818Z,13.08
2023-10-23T09:46:43.790Z,13.10
2023-10-23T09:49:13.037Z,13.25
2023-10-23T09:51:41.410Z,13.32
2023-10-23T09:54:21.562Z,13.32
2023-10-23T09:56:50.521Z,13.32
2023-10-23T09:59:26.535Z,13.39
2023-10-23T10:01:59.054Z,13.36
2023-10-23T10:04:41.170Z,13.43
2023-10-23T10:07:27.658Z,13.47
2023-10-23T10:09:55.941Z,13.46
2023-10-23T10:12:24.828Z,13.48
2023-10-23T10:14:54.188Z,13.52
2023-10-23T10:17:21.825Z,13.55
2023-10-23T10:19:50.845Z,13.51
2023-10-23T10:22:25.330Z,13.57
2023-10-23T10:24:53.872Z,13.58
2023-10-23T10:27:21.729Z,13.59
2023-10-23T10:29:48.458Z,13.52
2023-10-23T10:32:15.186Z,13.64
2023-10-23T10:34:57.144Z,13.72
2023-10-23T10:37:28.007Z,13.80
2023-10-23T10:39:57.811Z,13.78
2023-10-23T10:42:26.948Z,13.86
2023-10-23T10:44:54.384Z,13.90
2023-10-23T10:47:22.738Z,13.88
2023-10-23T10:49:52.065Z,13.93
2023-10-23T10:52:29.899Z,13.89
2023-10-23T10:54:57.161Z,13.97
2023-10-23T10:57:23.896Z,14.01
2023-10-23T10:59:59.197Z,14.02
2023-10-23T11:02:26.508Z,14.08
2023-10-23T11:04:53.378Z,14.09
2023-10-23T11:07:24.764Z,14.17
2023-10-23T11:09:52.473Z,14.12
2023-10-23T11:12:20.057Z,14.19
2023-10-23T11:14:49.638Z,14.16
2023-10-23T11:17:17.387Z,14.28
2023-10-23T11:19:51.617Z,14.26
2023-10-23T11:22:23.345Z,14.20
2023-10-23T11:24:50.371Z,14.14
2023-10-23T11:27:17.241Z,14.20
2023-10-23T11:29:48.421Z,14.11
2023-10-23T11:32:16.759Z,14.13
2023-10-23T11:34:44.684Z,14.12
2023-10-23T11:37:12.692Z,14.18
2023-10-23T11:39:43.746Z,14.21
2023-10-23T11:42:12.376Z,14.29
2023-10-23T11:44:41.264Z,14.24
2023-10-23T11:47:09.421Z,14.25
2023-10-23T11:49:36.344Z,14.28
2023-10-23T11:52:06.467Z,14.26
2023-10-23T11:54:33.171Z,14.19
2023-10-23T11:57:00.354Z,14.25
2023-10-23T11:59:27.761Z,14.26
2023-10-23T12:01:58.156Z,14.26
2023-10-23T12:04:25.016Z,14.23
2023-10-23T12:06:51.937Z,14.21
2023-10-23T12:09:18.741Z,14.23
2023-10-23T12:11:45.605Z,14.25
2023-10-23T12:14:12.336Z,14.31
2023-10-23T12:16:39.156Z,14.25
2023-10-23T12:19:05.949Z,14.27
2023-10-23T12:21:33.460Z,14.17
2023-10-23T12:24:00.152Z,14.16
2023-10-23T12:26:27.233Z,14.27
2023-10-23T12:28:54.063Z,14.24
2023-10-23T12:31:22.764Z,14.30
2023-10-23T12:33:51.527Z,14.20
2023-10-23T12:36:18.409Z,14.17
2023-10-23T12:38:45.190Z,14.12
2023-10-23T12:41:12.044Z,14.12
2023-10-23T12:43:39.158Z,14.03
2023-10-23T12:46:05.921Z,14.07
2023-10-23T12:48:32.766Z,14.03
2023-10-23T12:51:02.039Z,14.03
2023-10-23T12:53:28.916Z,14.06
2023-10-23T12:55:55.590Z,14.12
2023-10-23T12:58:22.402Z,14.12
2023-10-23T13:00:49.198Z,14.12
2023-10-23T13:03:16.084Z,14.14
2023-10-23T13:05:42.786Z,14.16
2023-10-23T13:08:09.482Z,14.22
2023-10-23T13:10:36.289Z,14.31
2023-10-23T13:13:03.361Z,14.31
2023-10-23T13:15:30.191Z,14.37
2023-10-23T13:17:57.676Z,14.36
2023-10-23T13:21:29.563Z,14.37
2023-10-23T13:23:11.343Z,14.38
2023-10-23T13:25:39.533Z,14.33
2023-10-23T13:28:06.244Z,14.33
2023-10-23T13:30:33.211Z,14.31
2023-10-23T13:33:00.496Z,14.28
2023-10-23T13:35:27.481Z,14.30
2023-10-23T13:37:54.223Z,14.31
2023-10-23T13:40:20.979Z,14.39
2023-10-23T13:42:47.884Z,14.43
2023-10-23T13:45:17.449Z,14.47
2023-10-23T13:47:44.916Z,14.41
2023-10-23T13:50:11.686Z,14.39
2023-10-23T13:52:38.422Z,14.43
2023-10-23T13:55:05.621Z,14.47
2023-10-23T13:57:32.406Z,14.52
2023-10-23T13:59:59.109Z,14.57
2023-10-23T14:02:25.937Z,14.65
2023-10-23T14:04:52.768Z,14.66
2023-10-23T14:07:19.694Z,14.69
2023-10-23T14:09:49.039Z,14.70
2023-10-23T14:12:17.935Z,14.69
2023-10-23T14:14:44.983Z,14.59
2023-10-23T14:17:11.880Z,14.62
2023-10-23T14:19:48.078Z,14.67
2023-10-23T14:22:18.484Z,14.51
2023-10-23T14:24:47.096Z,14.43
2023-10-23T14:27:13.796Z,14.31
2023-10-23T14:29:41.171Z,14.26
2023-10-23T14:32:08.066Z,14.27
2023-10-23T14:34:34.838Z,14.17
2023-10-23T14:37:01.676Z,14.12
2023-10-23T14:39:28.499Z,14.09
2023-10-23T14:41:55.782Z,14.02
2023-10-23T14:44:25.091Z,14.05
2023-10-23T14:46:53.009Z,14.01
2023-10-23T14:49:20.284Z,14.00
2023-10-23T14:51:47.112Z,13.99
2023-10-23T14:54:13.873Z,14.01
2023-10-23T14:56:40.635Z,14.01
2023-10-23T14:59:07.378Z,14.00
2023-10-23T15:01:34.584Z,13.96
2023-10-23T15:04:01.953Z,13.99
2023-10-23T15:06:28.916Z,13.98
2023-10-23T15:08:55.928Z,14.00
2023-10-23T15:11:26.410Z,13.96
2023-10-23T15:13:57.068Z,13.91
2023-10-23T15:16:23.974Z,13.93
2023-10-23T15:18:53.666Z,13.95
2023-10-23T15:21:20.492Z,13.86
2023-10-23T15:23:47.319Z,13.82
2023-10-23T15:26:14.044Z,13.89
2023-10-23T15:28:41.672Z,13.89
2023-10-23T15:31:08.738Z,13.89
2023-10-23T15:33:37.906Z,13.83
2023-10-23T15:36:06.102Z,13.82
2023-10-23T15:38:36.745Z,13.80
2023-10-23T15:41:09.186Z,13.77
2023-10-23T15:43:38.049Z,13.74
2023-10-23T15:46:05.856Z,13.73
2023-10-23T15:48:32.614Z,13.71
2023-10-23T15:50:59.979Z,13.69
2023-10-23T15:53:28.298Z,13.70
2023-10-23T15:55:56.247Z,13.70
2023-10-23T15:58:23.938Z,13.67
2023-10-23T16:00:55.607Z,13.66
2023-10-23T16:03:23.436Z,13.63
2023-10-23T16:05:51.745Z,13.60
2023-10-23T16:08:18.950Z,13.57
2023-10-23T16:10:51.387Z,13.56
2023-10-23T16:13:18.965Z,13.60
2023-10-23T16:15:48.271Z,13.57
2023-10-23T16:18:17.094Z,13.61
2023-10-23T16:20:44.829Z,13.59
2023-10-23T16:23:12.739Z,13.55
2023-10-23T16:25:43.316Z,13.54
2023-10-23T16:28:11.803Z,13.56
2023-10-23T16:30:42.512Z,13.56
2023-10-23T16:33:10.410Z,13.51
2023-10-23T16:35:37.918Z,13.48
2023-10-23T16:38:05.130Z,13.47
2023-10-23T16:40:34.806Z,13.52
2023-10-23T16:43:02.172Z,13.50
2023-10-23T16:45:29.544Z,13.54
2023-10-23T16:47:57.397Z,13.48
2023-10-23T16:50:25.560Z,13.42
2023-10-23T16:52:52.560Z,13.36
2023-10-23T16:55:19.466Z,13.35
2023-10-23T16:57:46.204Z,13.33
2023-10-23T17:00:15.215Z,13.33
2023-10-23T17:02:42.217Z,13.23
2023-10-23T17:05:13.015Z,13.23
2023-10-23T17:07:40.749Z,13.19
2023-10-23T17:10:08.238Z,13.12
2023-10-23T17:12:35.442Z,13.09
2023-10-23T17:15:03.726Z,13.11
2023-10-23T17:17:30.633Z,13.07
2023-10-23T17:19:57.528Z,12.97
2023-10-23T17:22:24.314Z,12.99
2023-10-23T17:24:51.518Z,13.05
2023-10-23T17:27:18.338Z,12.93
2023-10-23T17:29:45.320Z,12.86
2023-10-23T17:32:12.277Z,12.87
2023-10-23T17:34:39.158Z,12.89
2023-10-23T17:37:05.903Z,12.84
2023-10-23T17:39:33.065Z,12.84
2023-10-23T17:41:59.735Z,12.78
2023-10-23T17:44:26.451Z,12.75
2023-10-23T17:46:55.061Z,12.73
2023-10-23T17:49:23.411Z,12.67
2023-10-23T17:51:50.915Z,12.72
2023-10-23T17:54:17.837Z,12.73
2023-10-23T17:56:44.555Z,12.76
2023-10-23T17:59:11.494Z,12.74
2023-10-23T18:01:40.833Z,12.69
2023-10-23T18:04:09.930Z,12.68
2023-10-23T18:06:38.167Z,12.64
2023-10-23T18:09:05.813Z,12.62
2023-10-23T18:11:33.462Z,12.65
2023-10-23T18:14:00.376Z,12.60
2023-10-23T18:16:27.200Z,12.64
2023-10-23T18:18:54.063Z,12.63
2023-10-23T18:21:20.690Z,12.68
2023-10-23T18:23:47.298Z,12.68
2023-10-23T18:26:13.884Z,12.62
2023-10-23T18:28:40.583Z,12.65
2023-10-23T18:31:07.427Z,12.63
2023-10-23T18:33:34.183Z,12.63
2023-10-23T18:36:05.614Z,12.63
2023-10-23T18:38:32.664Z,12.64
2023-10-23T18:40:59.842Z,12.64
2023-10-23T18:43:28.754Z,12.58
2023-10-23T18:45:56.712Z,12.64
2023-10-23T18:51:51.976Z,12.57
2023-10-23T18:54:19.514Z,12.59
2023-10-23T18:56:46.849Z,12.56
2023-10-23T18:59:14.156Z,12.64
2023-10-23T19:01:41.416Z,12.64
2023-10-23T19:04:08.347Z,12.63
2023-10-23T19:06:36.353Z,12.62
2023-10-23T19:09:05.557Z,12.64
2023-10-23T19:11:32.370Z,12.62
2023-10-23T19:13:59.036Z,12.60
2023-10-23T19:16:25.688Z,12.60
2023-10-23T19:18:52.592Z,12.57
2023-10-23T19:21:19.259Z,12.56
2023-10-23T19:23:46.250Z,12.59
2023-10-23T19:26:14.326Z,12.72
2023-10-23T19:28:40.974Z,12.65
2023-10-23T19:31:20.822Z,12.59
2023-10-23T19:33:48.355Z,12.59
2023-10-23T19:36:15.633Z,12.57
2023-10-23T19:38:43.081Z,12.57
2023-10-23T19:41:13.290Z,12.58
2023-10-23T19:43:44.875Z,12.57
2023-10-23T19:46:14.101Z,12.58
2023-10-23T19:48:41.788Z,12.54
2023-10-23T19:51:10.350Z,12.55
2023-10-23T19:53:41.405Z,12.54
2023-10-23T19:56:18.540Z,12.53
2023-10-23T19:58:45.587Z,12.50
2023-10-23T20:01:12.289Z,12.47
2023-10-23T20:03:39.176Z,12.50
2023-10-23T20:06:05.973Z,12.44
2023-10-23T20:08:32.673Z,12.43
2023-10-23T20:10:59.319Z,12.45
2023-10-23T20:13:26.145Z,12.41
2023-10-23T20:15:52.780Z,12.44
2023-10-23T20:18:19.449Z,12.44
2023-10-23T20:20:54.345Z,12.46
2023-10-23T20:23:21.121Z,12.47
2023-10-23T20:25:48.398Z,12.49
2023-10-23T20:28:15.061Z,12.51
2023-10-23T20:30:41.832Z,12.47
2023-10-23T20:33:11.437Z,12.45
2023-10-23T20:35:38.428Z,12.43
2023-10-23T20:38:05.418Z,12.42
2023-10-23T20:40:32.118Z,12.45
2023-10-23T20:42:58.840Z,12.44
2023-10-23T20:45:25.553Z,12.40
2023-10-23T20:47:52.179Z,12.46
2023-10-23T20:50:20.989Z,12.47
2023-10-23T20:52:47.657Z,12.43
2023-10-23T20:55:15.483Z,12.43
2023-10-23T20:57:42.363Z,12.42
2023-10-23T21:00:09.748Z,12.47
2023-10-23T21:02:37.292Z,12.49
2023-10-23T21:05:05.172Z,12.48
2023-10-23T21:07:31.773Z,12.44
2023-10-23T21:09:58.429Z,12.46
2023-10-23T21:12:25.164Z,12.47
2023-10-23T21:14:51.871Z,12.47
2023-10-23T21:17:19.913Z,12.49
2023-10-23T21:19:46.884Z,12.46
2023-10-23T21:22:13.676Z,12.47
2023-10-23T21:24:40.309Z,12.52
2023-10-23T21:27:07.695Z,12.53
2023-10-23T21:29:34.407Z,12.46
2023-10-23T21:32:01.963Z,12.41
2023-10-23T21:34:29.113Z,12.39
2023-10-23T21:36:55.848Z,12.37
2023-10-23T21:39:22.459Z,12.38
2023-10-23T21:41:49.170Z,12.38
2023-10-23T21:44:15.902Z,12.43
2023-10-23T21:46:42.707Z,12.48
2023-10-23T21:49:11.754Z,12.46
2023-10-23T21:51:39.076Z,12.42
2023-10-23T21:54:06.357Z,12.42
2023-10-23T21:57:18.878Z,12.42
2023-10-23T21:59:21.114Z,12.41
2023-10-23T22:01:49.663Z,12.43
2023-10-23T22:04:18.818Z,12.43
2023-10-23T22:06:46.402Z,12.36
2023-10-23T22:09:14.716Z,12.41
2023-10-23T22:11:41.674Z,12.47
2023-10-23T22:14:08.841Z,12.40
2023-10-23T22:16:35.680Z,12.38
2023-10-23T22:19:02.348Z,12.41
2023-10-23T22:21:29.009Z,12.41
2023-10-23T22:23:55.712Z,12.44
2023-10-23T22:26:22.328Z,12.43
2023-10-23T22:28:48.950Z,12.40
2023-10-23T22:31:15.644Z,12.46
2023-10-23T22:33:42.348Z,12.42
2023-10-23T22:36:09.013Z,12.42
2023-10-23T22:38:35.662Z,12.40
2023-10-23T22:41:05.262Z,12.40
2023-10-23T22:43:32.263Z,12.40
2023-10-23T22:46:02.964Z,12.41
2023-10-23T22:48:30.975Z,12.38
2023-10-23T22:50:57.900Z,12.37
2023-10-23T22:53:25.389Z,12.40
2023-10-23T22:55:54.883Z,12.42
2023-10-23T22:58:31.282Z,12.44
2023-10-23T23:00:59.669Z,12.43
2023-10-23T23:03:26.788Z,12.44
2023-10-23T23:05:55.328Z,12.43
2023-10-23T23:08:22.752Z,12.45
2023-10-23T23:10:49.595Z,12.45
2023-10-23T23:13:16.514Z,12.45
2023-10-23T23:15:46.240Z,12.43
2023-10-23T23:18:15.346Z,12.45
2023-10-23T23:20:44.502Z,12.43
2023-10-23T23:23:11.212Z,12.41
2023-10-23T23:25:37.955Z,12.42
2023-10-23T23:28:04.956Z,12.41
2023-10-23T23:30:32.659Z,12.43
2023-10-23T23:32:59.356Z,12.36
2023-10-23T23:35:26.043Z,12.37
2023-10-23T23:37:53.268Z,12.38
2023-10-23T23:40:19.931Z,12.32
2023-10-23T23:42:46.551Z,12.34
2023-10-23T23:45:13.237Z,12.27
2023-10-23T23:47:39.898Z,12.40
2023-10-23T23:50:07.044Z,12.35
2023-10-23T23:52:33.833Z,12.32
2023-10-23T23:55:00.558Z,12.31
2023-10-23T23:57:29.255Z,12.31
2023-10-23T23:59:55.963Z,12.31
